createdAt,value
2022-07-26T00:01:34.426Z,97930.00
2022-07-26T00:04:01.720Z,97921.69
2022-07-26T00:06:29.114Z,97928.69
2022-07-26T00:08:55.998Z,97904.75
2022-07-26T00:11:23.830Z,97937.91
2022-07-26T00:13:50.844Z,97949.16
2022-07-26T00:16:17.948Z,97925.75
2022-07-26T00:18:45.092Z,97956.41
2022-07-26T00:21:11.935Z,97932.91
2022-07-26T00:23:39.224Z,97955.88
2022-07-26T00:26:06.010Z,97957.06
2022-07-26T00:28:32.649Z,97955.38
2022-07-26T00:30:59.525Z,97943.69
2022-07-26T00:33:26.285Z,97944.97
2022-07-26T00:35:53.085Z,97942.66
2022-07-26T00:38:19.724Z,97960.22
2022-07-26T00:40:46.724Z,97931.50
2022-07-26T00:43:13.652Z,97951.38
2022-07-26T00:45:40.370Z,97942.72
2022-07-26T00:48:07.270Z,97937.72
2022-07-26T00:50:34.079Z,97923.41
2022-07-26T00:53:01.206Z,97923.28
2022-07-26T00:55:28.148Z,97926.69
2022-07-26T00:57:54.951Z,97922.50
2022-07-26T01:00:26.509Z,97925.78
2022-07-26T01:02:54.130Z,97924.56
2022-07-26T01:05:23.136Z,97917.25
2022-07-26T01:07:50.469Z,97916.13
2022-07-26T01:10:17.299Z,97912.16
2022-07-26T01:12:44.577Z,97918.91
2022-07-26T01:15:14.039Z,97918.16
2022-07-26T01:17:41.541Z,97920.75
2022-07-26T01:20:10.419Z,97918.03
2022-07-26T01:22:37.280Z,97901.97
2022-07-26T01:25:04.656Z,97908.47
2022-07-26T01:27:34.083Z,97910.34
2022-07-26T01:30:01.120Z,97904.47
2022-07-26T01:32:27.785Z,97913.03
2022-07-26T01:34:54.684Z,97910.50
2022-07-26T01:37:21.305Z,97917.44
2022-07-26T01:39:48.049Z,97893.13
2022-07-26T01:42:14.917Z,97897.84
2022-07-26T01:44:41.713Z,97882.63
2022-07-26T01:47:08.312Z,97889.09
2022-07-26T01:49:35.247Z,97892.59
2022-07-26T01:52:01.805Z,97889.75
2022-07-26T01:54:28.647Z,97887.16
2022-07-26T01:56:55.574Z,97884.25
2022-07-26T01:59:22.461Z,97873.00
2022-07-26T02:01:49.266Z,97876.66
2022-07-26T02:04:34.609Z,97868.44
2022-07-26T02:07:03.265Z,97870.25
2022-07-26T02:09:39.745Z,97887.78
2022-07-26T02:12:07.287Z,97877.78
2022-07-26T02:14:34.038Z,97883.13
2022-07-26T02:17:00.935Z,97889.16
2022-07-26T02:19:28.720Z,97896.97
2022-07-26T02:21:55.879Z,97896.97
2022-07-26T02:24:23.773Z,97890.44
2022-07-26T02:26:50.667Z,97877.75
2022-07-26T02:29:17.309Z,97896.38
2022-07-26T02:31:48.297Z,97885.38
2022-07-26T02:34:16.000Z,97891.03
2022-07-26T02:36:42.665Z,97895.81
2022-07-26T02:39:09.899Z,97887.59
2022-07-26T02:41:36.808Z,97866.44
2022-07-26T02:44:03.692Z,97893.13
2022-07-26T02:46:30.515Z,97885.84
2022-07-26T02:48:57.261Z,97902.44
2022-07-26T02:51:24.124Z,97900.00
2022-07-26T02:53:50.923Z,97872.56
2022-07-26T02:56:17.660Z,97907.91
2022-07-26T02:58:44.431Z,97918.53
2022-07-26T03:01:11.693Z,97900.97
2022-07-26T03:03:40.286Z,97917.03
2022-07-26T03:06:06.957Z,97927.72
2022-07-26T03:08:33.780Z,97902.09
2022-07-26T03:11:00.768Z,97893.50
2022-07-26T03:13:27.552Z,97914.72
2022-07-26T03:15:54.387Z,97913.13
2022-07-26T03:18:21.054Z,97925.28
2022-07-26T03:20:48.127Z,97933.56
2022-07-26T03:23:14.914Z,97928.63
2022-07-26T03:25:41.966Z,97930.91
2022-07-26T03:28:08.802Z,97924.31
2022-07-26T03:30:35.874Z,97926.13
2022-07-26T03:33:02.752Z,97930.53
2022-07-26T03:35:29.488Z,97939.97
2022-07-26T03:37:56.219Z,97934.09
2022-07-26T03:40:23.165Z,97926.75
2022-07-26T03:42:49.978Z,97911.13
2022-07-26T03:45:16.660Z,97941.59
2022-07-26T03:47:43.854Z,97931.16
2022-07-26T03:50:11.183Z,97942.69
2022-07-26T03:52:38.281Z,97941.84
2022-07-26T03:55:26.450Z,97947.25
2022-07-26T03:57:53.601Z,97935.34
2022-07-26T04:00:20.521Z,97953.09
2022-07-26T04:02:47.218Z,97943.97
2022-07-26T04:05:14.167Z,97935.63
2022-07-26T04:07:52.424Z,97947.66
2022-07-26T04:10:21.001Z,97953.56
2022-07-26T04:12:48.141Z,97955.09
2022-07-26T04:15:17.076Z,97961.22
2022-07-26T04:17:44.182Z,97969.63
2022-07-26T04:20:11.960Z,97961.81
2022-07-26T04:22:40.224Z,97965.59
2022-07-26T04:25:09.877Z,97973.09
2022-07-26T04:27:37.462Z,97975.09
2022-07-26T04:30:08.543Z,97973.75
2022-07-26T04:32:39.450Z,97981.34
2022-07-26T04:35:06.257Z,98003.09
2022-07-26T04:37:39.382Z,97993.78
2022-07-26T04:40:07.202Z,98018.28
2022-07-26T04:42:34.031Z,98038.53
2022-07-26T04:45:05.794Z,98040.38
2022-07-26T04:47:34.779Z,98038.84
2022-07-26T04:50:02.549Z,98047.91
2022-07-26T04:52:29.688Z,98040.66
2022-07-26T04:54:56.756Z,98041.28
2022-07-26T04:57:24.029Z,98046.81
2022-07-26T05:00:09.994Z,98053.16
2022-07-26T05:02:37.825Z,98038.34
2022-07-26T05:05:06.718Z,98065.09
2022-07-26T05:07:44.809Z,98077.16
2022-07-26T05:10:13.114Z,98079.97
2022-07-26T05:12:41.297Z,98071.38
2022-07-26T05:15:13.774Z,98076.41
2022-07-26T05:17:43.254Z,98095.63
2022-07-26T05:20:12.348Z,98091.88
2022-07-26T05:22:39.383Z,98085.44
2022-07-26T05:25:07.295Z,98089.19
2022-07-26T05:27:34.163Z,98087.19
2022-07-26T05:30:00.779Z,98073.97
2022-07-26T05:32:30.446Z,98064.63
2022-07-26T05:34:57.233Z,98066.06
2022-07-26T05:37:23.898Z,98091.09
2022-07-26T05:39:50.973Z,98111.38
2022-07-26T05:42:17.749Z,98116.34
2022-07-26T05:44:44.508Z,98141.31
2022-07-26T05:47:11.671Z,98138.41
2022-07-26T05:49:39.771Z,98128.13
2022-07-26T05:52:08.399Z,98131.13
2022-07-26T05:54:36.470Z,98133.94
2022-07-26T05:57:04.588Z,98136.41
2022-07-26T05:59:32.357Z,98151.41
2022-07-26T06:01:59.543Z,98123.16
2022-07-26T06:04:27.466Z,98132.78
2022-07-26T06:06:55.305Z,98136.31
2022-07-26T06:09:27.091Z,98130.69
2022-07-26T06:11:54.327Z,98135.88
2022-07-26T06:14:21.399Z,98135.50
2022-07-26T06:16:48.817Z,98141.38
2022-07-26T06:19:15.994Z,98140.75
2022-07-26T06:21:58.017Z,98129.06
2022-07-26T06:24:24.852Z,98135.97
2022-07-26T06:26:56.774Z,98131.56
2022-07-26T06:29:32.060Z,98122.38
2022-07-26T06:31:59.548Z,98138.06
2022-07-26T06:34:26.457Z,98133.25
2022-07-26T06:36:53.091Z,98136.69
2022-07-26T06:39:19.900Z,98138.38
2022-07-26T06:41:46.804Z,98129.91
2022-07-26T06:44:13.518Z,98146.94
2022-07-26T06:46:40.275Z,98138.78
2022-07-26T06:49:07.180Z,98144.06
2022-07-26T06:51:34.136Z,98144.50
2022-07-26T06:54:01.234Z,98145.78
2022-07-26T06:56:28.104Z,98148.31
2022-07-26T06:58:56.446Z,98140.00
2022-07-26T07:01:58.636Z,98134.06
2022-07-26T07:04:10.837Z,98141.22
2022-07-26T07:06:38.036Z,98131.63
2022-07-26T07:09:05.005Z,98151.81
2022-07-26T07:11:35.073Z,98150.41
2022-07-26T07:14:03.450Z,98143.31
2022-07-26T07:16:30.619Z,98142.84
2022-07-26T07:18:57.734Z,98143.78
2022-07-26T07:21:24.598Z,98134.69
2022-07-26T07:23:51.375Z,98146.63
2022-07-26T07:26:20.246Z,98144.13
2022-07-26T07:28:47.171Z,98156.22
2022-07-26T07:31:15.667Z,98148.88
2022-07-26T07:33:52.800Z,98160.34
2022-07-26T07:36:21.371Z,98156.59
2022-07-26T07:38:49.388Z,98153.38
2022-07-26T07:41:16.429Z,98147.16
2022-07-26T07:43:43.180Z,98171.78
2022-07-26T07:46:09.894Z,98162.25
2022-07-26T07:48:38.719Z,98168.56
2022-07-26T07:51:11.545Z,98187.28
2022-07-26T07:53:43.015Z,98174.97
2022-07-26T07:56:10.326Z,98183.50
2022-07-26T07:58:37.348Z,98183.16
2022-07-26T08:01:04.132Z,98202.38
2022-07-26T08:03:38.656Z,98192.13
2022-07-26T08:06:08.791Z,98194.19
2022-07-26T08:08:36.908Z,98192.38
2022-07-26T08:11:04.962Z,98202.22
2022-07-26T08:13:34.908Z,98175.72
2022-07-26T08:16:01.726Z,98192.47
2022-07-26T08:18:28.605Z,98174.97
2022-07-26T08:20:56.894Z,98188.44
2022-07-26T08:23:23.907Z,98187.19
2022-07-26T08:25:57.118Z,98187.84
2022-07-26T08:28:45.652Z,98189.31
2022-07-26T08:31:13.444Z,98193.53
2022-07-26T08:33:41.047Z,98199.59
2022-07-26T08:36:17.120Z,98195.00
2022-07-26T08:38:47.561Z,98206.50
2022-07-26T08:41:14.734Z,98208.38
2022-07-26T08:43:51.225Z,98214.84
2022-07-26T08:46:28.363Z,98209.44
2022-07-26T08:48:56.949Z,98223.44
2022-07-26T08:51:25.732Z,98229.69
2022-07-26T08:54:04.194Z,98237.63
2022-07-26T08:56:33.851Z,98223.69
2022-07-26T08:59:19.434Z,98223.88
2022-07-26T09:01:54.230Z,98242.91
2022-07-26T09:04:33.264Z,98230.59
2022-07-26T09:07:18.419Z,98256.88
2022-07-26T09:09:57.328Z,98260.41
2022-07-26T09:12:25.819Z,98261.03
2022-07-26T09:14:53.669Z,98256.84
2022-07-26T09:17:24.781Z,98275.22
2022-07-26T09:20:40.663Z,98285.00
2022-07-26T09:23:10.153Z,98292.91
2022-07-26T09:25:41.195Z,98297.84
2022-07-26T09:28:25.771Z,98294.91
2022-07-26T09:31:03.235Z,98299.34
2022-07-26T09:33:51.613Z,98289.16
2022-07-26T09:36:19.416Z,98291.69
2022-07-26T09:38:51.533Z,98299.44
2022-07-26T09:41:24.499Z,98298.38
2022-07-26T09:43:53.979Z,98305.69
2022-07-26T09:46:23.161Z,98317.38
2022-07-26T09:49:10.119Z,98321.31
2022-07-26T09:51:42.695Z,98326.94
2022-07-26T09:54:18.374Z,98325.44
2022-07-26T09:56:54.026Z,98324.59
2022-07-26T09:59:22.630Z,98323.16
2022-07-26T10:01:51.453Z,98316.91
2022-07-26T10:04:19.589Z,98329.38
2022-07-26T10:06:46.860Z,98322.88
2022-07-26T10:09:14.796Z,98325.13
2022-07-26T10:11:50.741Z,98336.81
2022-07-26T10:14:33.780Z,98336.78
2022-07-26T10:17:02.478Z,98320.88
2022-07-26T10:19:45.572Z,98343.53
2022-07-26T10:22:42.982Z,98337.63
2022-07-26T10:25:19.145Z,98350.16
2022-07-26T10:27:47.153Z,98347.69
2022-07-26T10:30:20.065Z,98352.56
2022-07-26T10:33:01.543Z,98313.72
2022-07-26T10:35:46.228Z,98325.72
2022-07-26T10:38:22.549Z,98332.66
2022-07-26T10:40:58.674Z,98320.75
2022-07-26T10:43:42.519Z,98307.81
2022-07-26T10:46:16.241Z,98311.63
2022-07-26T10:49:00.329Z,98303.44
2022-07-26T10:51:31.872Z,98326.19
2022-07-26T10:54:04.493Z,98317.25
2022-07-26T10:56:33.615Z,98294.06
2022-07-26T10:59:01.288Z,98294.31
2022-07-26T11:01:39.935Z,98298.75
2022-07-26T11:04:20.449Z,98302.53
2022-07-26T11:06:47.426Z,98301.25
2022-07-26T11:09:14.472Z,98301.28
2022-07-26T11:11:46.322Z,98295.63
2022-07-26T11:14:17.045Z,98294.38
2022-07-26T11:16:47.287Z,98286.41
2022-07-26T11:19:20.945Z,98290.97
2022-07-26T11:21:54.840Z,98290.06
2022-07-26T11:24:22.195Z,98277.34
2022-07-26T11:26:52.348Z,98269.84
2022-07-26T11:29:35.697Z,98274.69
2022-07-26T11:32:17.413Z,98281.03
2022-07-26T11:34:45.579Z,98280.66
2022-07-26T11:37:13.429Z,98284.88
2022-07-26T11:39:40.293Z,98281.13
2022-07-26T11:42:13.166Z,98274.50
2022-07-26T11:44:44.568Z,98285.13
2022-07-26T11:47:14.273Z,98284.53
2022-07-26T11:49:59.759Z,98289.31
2022-07-26T11:52:32.168Z,98290.75
2022-07-26T11:54:59.243Z,98284.00
2022-07-26T11:57:31.266Z,98288.97
2022-07-26T11:59:59.054Z,98269.75
2022-07-26T12:02:26.289Z,98289.53
2022-07-26T12:05:22.647Z,98297.66
2022-07-26T12:08:02.992Z,98309.53
2022-07-26T12:10:30.169Z,98293.63
2022-07-26T12:13:11.438Z,98300.78
2022-07-26T12:16:04.618Z,98302.63
2022-07-26T12:18:32.844Z,98285.97
2022-07-26T12:21:05.726Z,98306.97
2022-07-26T12:23:42.359Z,98303.25
2022-07-26T12:26:27.511Z,98298.28
2022-07-26T12:28:55.894Z,98301.53
2022-07-26T12:31:30.737Z,98301.06
2022-07-26T12:33:57.951Z,98291.84
2022-07-26T12:36:27.529Z,98301.09
2022-07-26T12:39:00.704Z,98299.31
2022-07-26T12:41:40.583Z,98298.03
2022-07-26T12:44:11.908Z,98295.31
2022-07-26T12:46:39.325Z,98273.25
2022-07-26T12:49:06.293Z,98296.59
2022-07-26T12:51:33.853Z,98291.06
2022-07-26T12:54:00.880Z,98293.56
2022-07-26T12:56:27.664Z,98292.78
2022-07-26T12:58:56.113Z,98289.41
2022-07-26T13:01:23.010Z,98280.84
2022-07-26T13:03:49.851Z,98277.94
2022-07-26T13:06:16.637Z,98271.09
2022-07-26T13:08:43.384Z,98268.22
2022-07-26T13:11:10.590Z,98287.19
2022-07-26T13:13:37.379Z,98257.41
2022-07-26T13:16:08.114Z,98264.25
2022-07-26T13:18:38.447Z,98270.38
2022-07-26T13:21:05.840Z,98272.38
2022-07-26T13:23:32.785Z,98268.06
2022-07-26T13:26:02.886Z,98255.78
2022-07-26T13:28:30.303Z,98267.84
2022-07-26T13:30:57.149Z,98256.63
2022-07-26T13:33:23.991Z,98254.94
2022-07-26T13:35:50.771Z,98249.84
2022-07-26T13:38:19.649Z,98255.16
2022-07-26T13:40:46.495Z,98250.66
2022-07-26T13:43:13.217Z,98237.25
2022-07-26T13:45:40.176Z,98238.72
2022-07-26T13:48:07.353Z,98241.34
2022-07-26T13:50:34.299Z,98234.41
2022-07-26T13:53:01.279Z,98240.03
2022-07-26T13:55:28.081Z,98236.06
2022-07-26T13:57:56.647Z,98232.75
2022-07-26T14:00:29.380Z,98224.03
2022-07-26T14:02:58.681Z,98228.94
2022-07-26T14:05:27.225Z,98228.53
2022-07-26T14:07:54.984Z,98226.75
2022-07-26T14:10:24.429Z,98231.59
2022-07-26T14:12:51.846Z,98227.47
2022-07-26T14:15:22.783Z,98221.91
2022-07-26T14:17:53.572Z,98227.28
2022-07-26T14:20:21.671Z,98224.06
2022-07-26T14:22:54.383Z,98225.28
2022-07-26T14:25:33.312Z,98212.25
2022-07-26T14:28:05.040Z,98224.53
2022-07-26T14:30:32.265Z,98244.31
2022-07-26T14:33:00.282Z,98235.28
2022-07-26T14:35:27.111Z,98243.44
2022-07-26T14:37:53.835Z,98227.91
2022-07-26T14:40:20.610Z,98234.53
2022-07-26T14:42:47.550Z,98218.31
2022-07-26T14:45:15.273Z,98222.63
2022-07-26T14:47:42.514Z,98224.06
2022-07-26T14:50:11.050Z,98226.31
2022-07-26T14:52:46.159Z,98219.81
2022-07-26T14:55:15.340Z,98199.97
2022-07-26T14:57:42.713Z,98213.84
2022-07-26T15:00:11.937Z,98213.19
2022-07-26T15:02:44.462Z,98208.56
2022-07-26T15:05:12.659Z,98212.13
2022-07-26T15:07:40.644Z,98207.78
2022-07-26T15:10:09.766Z,98209.72
2022-07-26T15:12:36.845Z,98204.56
2022-07-26T15:15:04.802Z,98199.09
2022-07-26T15:17:31.646Z,98203.50
2022-07-26T15:19:58.579Z,98199.84
2022-07-26T15:22:25.343Z,98201.50
2022-07-26T15:24:52.405Z,98202.22
2022-07-26T15:27:19.233Z,98203.72
2022-07-26T15:29:48.580Z,98196.31
2022-07-26T15:32:15.505Z,98204.88
2022-07-26T15:34:42.357Z,98195.91
2022-07-26T15:37:09.604Z,98199.44
2022-07-26T15:39:36.773Z,98189.03
2022-07-26T15:42:07.881Z,98199.63
2022-07-26T15:44:38.475Z,98204.78
2022-07-26T15:47:05.667Z,98203.50
2022-07-26T15:49:32.837Z,98202.88
2022-07-26T15:52:01.239Z,98203.75
2022-07-26T15:54:28.310Z,98211.13
2022-07-26T15:56:55.192Z,98213.97
2022-07-26T15:59:22.011Z,98215.31
2022-07-26T16:01:49.285Z,98213.53
2022-07-26T16:04:16.119Z,98212.06
2022-07-26T16:06:42.939Z,98226.28
2022-07-26T16:09:19.168Z,98222.94
2022-07-26T16:11:47.703Z,98220.25
2022-07-26T16:14:15.514Z,98223.81
2022-07-26T16:16:42.651Z,98232.16
2022-07-26T16:19:10.279Z,98228.06
2022-07-26T16:21:37.807Z,98232.00
2022-07-26T16:24:07.295Z,98227.13
2022-07-26T16:26:35.692Z,98242.09
2022-07-26T16:29:03.126Z,98238.28
2022-07-26T16:31:30.712Z,98240.81
2022-07-26T16:33:57.652Z,98241.31
2022-07-26T16:36:24.397Z,98230.59
2022-07-26T16:38:51.210Z,98233.34
2022-07-26T16:41:18.040Z,98230.34
2022-07-26T16:43:44.938Z,98200.47
2022-07-26T16:46:11.799Z,98214.44
2022-07-26T16:48:38.581Z,98221.00
2022-07-26T16:51:05.431Z,98209.81
2022-07-26T16:53:32.225Z,98222.69
2022-07-26T16:55:59.069Z,98215.38
2022-07-26T16:58:25.993Z,98235.28
2022-07-26T17:00:53.210Z,98237.63
2022-07-26T17:03:19.986Z,98231.63
2022-07-26T17:05:47.290Z,98238.78
2022-07-26T17:08:14.176Z,98240.25
2022-07-26T17:10:41.333Z,98248.19
2022-07-26T17:13:08.430Z,98238.50
2022-07-26T17:15:35.602Z,98242.34
2022-07-26T17:18:02.854Z,98241.78
2022-07-26T17:20:29.925Z,98233.28
2022-07-26T17:22:56.773Z,98223.25
2022-07-26T17:25:23.639Z,98238.34
2022-07-26T17:27:50.671Z,98239.63
2022-07-26T17:30:17.710Z,98234.63
2022-07-26T17:32:44.678Z,98228.31
2022-07-26T17:35:11.959Z,98242.50
2022-07-26T17:37:38.833Z,98246.03
2022-07-26T17:40:08.412Z,98258.53
2022-07-26T17:42:36.561Z,98255.53
2022-07-26T17:45:04.879Z,98263.41
2022-07-26T17:47:32.134Z,98254.16
2022-07-26T17:52:51.461Z,98258.22
2022-07-26T17:55:19.050Z,98270.53
2022-07-26T17:57:47.918Z,98274.88
2022-07-26T18:00:17.193Z,98279.00
2022-07-26T18:02:44.244Z,98293.13
2022-07-26T18:05:11.557Z,98302.56
2022-07-26T18:07:45.272Z,98317.22
2022-07-26T18:10:14.586Z,98332.09
2022-07-26T18:12:41.763Z,98323.31
2022-07-26T18:15:09.151Z,98330.00
2022-07-26T18:17:37.179Z,98330.81
2022-07-26T18:20:05.945Z,98332.06
2022-07-26T18:22:33.045Z,98330.72
2022-07-26T18:24:59.846Z,98330.19
2022-07-26T18:27:28.363Z,98334.38
2022-07-26T18:29:55.765Z,98339.03
2022-07-26T18:32:23.221Z,98344.53
2022-07-26T18:34:52.304Z,98354.38
2022-07-26T18:37:20.485Z,98358.88
2022-07-26T18:39:48.173Z,98368.72
2022-07-26T18:42:15.543Z,98372.06
2022-07-26T18:44:42.441Z,98368.00
2022-07-26T18:47:09.787Z,98364.22
2022-07-26T18:49:36.790Z,98359.31
2022-07-26T18:52:08.822Z,98353.13
2022-07-26T18:54:36.373Z,98355.03
2022-07-26T18:57:03.714Z,98352.41
2022-07-26T18:59:31.274Z,98361.69
2022-07-26T19:01:59.862Z,98369.50
2022-07-26T19:04:27.238Z,98368.22
2022-07-26T19:06:54.493Z,98366.91
2022-07-26T19:09:21.411Z,98380.88
2022-07-26T19:11:48.276Z,98378.88
2022-07-26T19:14:15.059Z,98372.53
2022-07-26T19:16:41.679Z,98389.38
2022-07-26T19:19:08.489Z,98380.44
2022-07-26T19:21:35.459Z,98373.06
2022-07-26T19:24:02.129Z,98383.16
2022-07-26T19:26:29.771Z,98387.22
2022-07-26T19:28:56.606Z,98383.72
2022-07-26T19:31:23.286Z,98396.84
2022-07-26T19:33:50.138Z,98390.94
2022-07-26T19:36:25.466Z,98403.06
2022-07-26T19:38:57.570Z,98398.19
2022-07-26T19:41:24.948Z,98399.56
2022-07-26T19:43:51.686Z,98394.00
2022-07-26T19:46:18.654Z,98388.50
2022-07-26T19:48:45.597Z,98394.03
2022-07-26T19:51:12.309Z,98402.66
2022-07-26T19:53:39.069Z,98391.19
2022-07-26T19:56:06.281Z,98395.22
2022-07-26T19:58:33.031Z,98377.22
2022-07-26T20:00:59.959Z,98393.34
2022-07-26T20:03:26.686Z,98403.63
2022-07-26T20:05:55.314Z,98407.69
2022-07-26T20:08:22.098Z,98375.91
2022-07-26T20:10:48.834Z,98390.19
2022-07-26T20:13:15.747Z,98383.78
2022-07-26T20:15:42.479Z,98391.03
2022-07-26T20:18:10.474Z,98393.56
2022-07-26T20:20:37.366Z,98389.84
2022-07-26T20:23:06.147Z,98393.34
2022-07-26T20:25:35.806Z,98395.53
2022-07-26T20:28:03.093Z,98383.75
2022-07-26T20:30:30.255Z,98384.44
2022-07-26T20:32:57.212Z,98363.06
2022-07-26T20:35:23.836Z,98396.50
2022-07-26T20:37:50.777Z,98385.88
2022-07-26T20:40:17.807Z,98398.63
2022-07-26T20:42:44.906Z,98359.75
2022-07-26T20:45:13.103Z,98390.69
2022-07-26T20:47:43.218Z,98391.50
2022-07-26T20:50:13.248Z,98399.53
2022-07-26T20:52:40.389Z,98395.94
2022-07-26T20:55:08.980Z,98403.41
2022-07-26T20:57:36.549Z,98412.53
2022-07-26T21:00:08.271Z,98416.69
2022-07-26T21:02:35.579Z,98416.88
2022-07-26T21:05:03.876Z,98415.34
2022-07-26T21:07:55.625Z,98409.44
2022-07-26T21:10:18.465Z,98419.63
2022-07-26T21:12:45.461Z,98388.94
2022-07-26T21:15:12.561Z,98416.84
2022-07-26T21:17:39.726Z,98421.69
2022-07-26T21:20:07.130Z,98431.59
2022-07-26T21:22:34.130Z,98425.16
2022-07-26T21:25:00.994Z,98429.13
2022-07-26T21:27:27.767Z,98423.41
2022-07-26T21:29:54.605Z,98428.22
2022-07-26T21:32:21.475Z,98425.00
2022-07-26T21:34:48.270Z,98430.69
2022-07-26T21:37:15.115Z,98425.84
2022-07-26T21:39:41.994Z,98427.69
2022-07-26T21:42:08.655Z,98440.25
2022-07-26T21:44:35.502Z,98437.91
2022-07-26T21:47:02.279Z,98432.16
2022-07-26T21:49:29.208Z,98425.94
2022-07-26T21:51:56.013Z,98430.00
2022-07-26T21:54:22.779Z,98417.34
2022-07-26T21:56:49.772Z,98419.88
2022-07-26T21:59:16.736Z,98420.28
2022-07-26T22:01:43.534Z,98418.19
2022-07-26T22:04:10.516Z,98439.19
2022-07-26T22:06:37.938Z,98430.69
2022-07-26T22:09:05.376Z,98432.22
2022-07-26T22:11:32.184Z,98421.50
2022-07-26T22:13:58.978Z,98422.72
2022-07-26T22:16:25.767Z,98426.75
2022-07-26T22:18:52.629Z,98391.09
2022-07-26T22:21:19.431Z,98417.81
2022-07-26T22:23:46.450Z,98412.38
2022-07-26T22:26:14.914Z,98391.09
2022-07-26T22:28:41.813Z,98418.66
2022-07-26T22:31:08.989Z,98421.72
2022-07-26T22:33:36.064Z,98414.97
2022-07-26T22:36:02.892Z,98413.13
2022-07-26T22:38:30.459Z,98411.97
2022-07-26T22:40:57.273Z,98428.84
2022-07-26T22:43:24.111Z,98421.81
2022-07-26T22:45:50.964Z,98407.53
2022-07-26T22:48:17.839Z,98416.28
2022-07-26T22:50:44.706Z,98416.72
2022-07-26T22:53:11.568Z,98413.91
2022-07-26T22:55:38.342Z,98403.50
2022-07-26T22:58:05.164Z,98408.84
2022-07-26T23:00:32.033Z,98402.97
2022-07-26T23:02:58.773Z,98417.41
2022-07-26T23:05:31.881Z,98412.88
2022-07-26T23:08:36.243Z,98415.75
2022-07-26T23:10:59.245Z,98414.03
2022-07-26T23:13:26.116Z,98416.19
2022-07-26T23:15:56.747Z,98416.38
2022-07-26T23:18:26.671Z,98412.81
2022-07-26T23:20:53.423Z,98421.16
2022-07-26T23:23:20.185Z,98412.59
2022-07-26T23:25:47.043Z,98421.47
2022-07-26T23:28:36.288Z,98407.88
2022-07-26T23:31:01.320Z,98393.91
2022-07-26T23:33:52.408Z,98411.69
2022-07-26T23:36:15.004Z,98412.53
2022-07-26T23:38:41.794Z,98415.34
2022-07-26T23:41:08.652Z,98419.44
2022-07-26T23:43:35.394Z,98418.41
2022-07-26T23:46:02.270Z,98404.03
2022-07-26T23:48:30.839Z,98398.94
2022-07-26T23:50:57.649Z,98396.84
2022-07-26T23:53:26.725Z,98401.19
2022-07-26T23:55:54.608Z,98396.28
2022-07-26T23:58:21.794Z,98400.41
